Terminal Aerodrome Forecast
Issued by NWS

Home | Current Version | Previous Version | Graphics & Text | Print | Product List | Glossary On
Versions: 1 2 3 4 5 6 7 8 9 10 11 12 13 14 15 16 17 18 19 20 21 22 23 24 25 26 27
727
FTUS43 KLOT 220913 AAA
TAFORD
TAF AMD
KORD 220913Z 2209/2312 18014G20KT P6SM SCT060 BKN100 BKN250
     FM221400 19012G22KT P6SM VCSH SCT020 BKN040
      TEMPO 2216/2220 3SM -SHRA BR BKN013
     FM222000 34012G20KT 4SM -RA BR SCT008 OVC013
     FM230400 34011KT P6SM VCSH BKN015
     FM230700 30005KT P6SM SCT100 BKN250=

USA.gov is the U.S. government's official web portal to all federal, state and local government web resources and services.